sensor_id;sensor_type;location;lat;lon;timestamp;P1;durP1;ratioP1;P2;durP2;ratioP2
61399;SDS011;47269;48.182;-1.946;2023-02-03T09:07:33;3.63;;;2.47;;
61399;SDS011;47269;48.182;-1.946;2023-02-03T09:09:59;12.05;;;6.05;;
61399;SDS011;47269;48.182;-1.946;2023-02-03T09:12:24;12.23;;;7.40;;
61399;SDS011;47269;48.182;-1.946;2023-02-03T09:14:50;15.65;;;8.65;;
61399;SDS011;47269;48.182;-1.946;2023-02-03T09:17:16;11.13;;;5.85;;
61399;SDS011;47269;48.182;-1.946;2023-02-03T09:19:44;9.30;;;5.00;;
61399;SDS011;47269;48.182;-1.946;2023-02-03T09:22:09;11.07;;;4.68;;
61399;SDS011;47269;48.182;-1.946;2023-02-03T09:24:35;12.05;;;4.60;;
61399;SDS011;47269;48.182;-1.946;2023-02-03T09:27:01;8.15;;;3.45;;
61399;SDS011;47269;48.182;-1.946;2023-02-03T09:29:27;5.25;;;3.05;;
61399;SDS011;47269;48.182;-1.946;2023-02-03T09:31:53;4.75;;;3.10;;
61399;SDS011;47269;48.182;-1.946;2023-02-03T09:34:18;10.65;;;4.97;;
61399;SDS011;47269;48.182;-1.946;2023-02-03T09:36:45;13.98;;;4.30;;
61399;SDS011;47269;48.182;-1.946;2023-02-03T09:39:11;6.93;;;3.28;;
61399;SDS011;47269;48.182;-1.946;2023-02-03T09:44:37;6.78;;;2.53;;
61399;SDS011;47269;48.182;-1.946;2023-02-03T09:47:27;5.68;;;2.42;;
61399;SDS011;47269;48.182;-1.946;2023-02-03T09:49:59;9.48;;;3.22;;
61399;SDS011;47269;48.182;-1.946;2023-02-03T09:52:45;6.43;;;3.28;;
61399;SDS011;47269;48.182;-1.946;2023-02-03T09:58:04;9.38;;;3.15;;
61399;SDS011;47269;48.182;-1.946;2023-02-03T10:00:53;8.00;;;3.45;;
61399;SDS011;47269;48.182;-1.946;2023-02-03T10:03:27;2.55;;;1.27;;
61399;SDS011;47269;48.182;-1.946;2023-02-03T10:19:38;3.65;;;1.73;;
61399;SDS011;47269;48.182;-1.946;2023-02-03T10:22:17;4.93;;;2.22;;
61399;SDS011;47269;48.182;-1.946;2023-02-03T10:27:31;7.45;;;2.85;;
61399;SDS011;47269;48.182;-1.946;2023-02-03T10:32:45;4.30;;;2.35;;
61399;SDS011;47269;48.182;-1.946;2023-02-03T10:38:29;3.50;;;2.00;;
61399;SDS011;47269;48.182;-1.946;2023-02-03T10:41:05;3.17;;;1.85;;
61399;SDS011;47269;48.182;-1.946;2023-02-03T10:43:31;6.25;;;2.88;;
61399;SDS011;47269;48.182;-1.946;2023-02-03T10:48:54;5.95;;;2.28;;
61399;SDS011;47269;48.182;-1.946;2023-02-03T10:54:02;3.85;;;2.10;;
61399;SDS011;47269;48.182;-1.946;2023-02-03T10:56:29;4.57;;;2.30;;
61399;SDS011;47269;48.182;-1.946;2023-02-03T10:58:56;3.60;;;2.22;;
61399;SDS011;47269;48.182;-1.946;2023-02-03T11:01:25;4.20;;;1.60;;
61399;SDS011;47269;48.182;-1.946;2023-02-03T11:03:53;2.25;;;1.40;;
61399;SDS011;47269;48.182;-1.946;2023-02-03T11:06:23;3.67;;;1.30;;
61399;SDS011;47269;48.182;-1.946;2023-02-03T11:08:49;3.85;;;1.60;;
61399;SDS011;47269;48.182;-1.946;2023-02-03T11:11:21;4.20;;;2.10;;
61399;SDS011;47269;48.182;-1.946;2023-02-03T11:14:14;3.13;;;1.67;;
61399;SDS011;47269;48.182;-1.946;2023-02-03T11:16:40;3.75;;;1.70;;
61399;SDS011;47269;48.182;-1.946;2023-02-03T11:21:46;5.90;;;2.45;;
61399;SDS011;47269;48.182;-1.946;2023-02-03T11:24:25;4.07;;;2.28;;
61399;SDS011;47269;48.182;-1.946;2023-02-03T11:27:02;8.82;;;2.00;;
61399;SDS011;47269;48.182;-1.946;2023-02-03T11:29:34;1.92;;;1.30;;
61399;SDS011;47269;48.182;-1.946;2023-02-03T11:32:03;6.65;;;3.15;;
61399;SDS011;47269;48.182;-1.946;2023-02-03T11:34:38;5.38;;;2.80;;
61399;SDS011;47269;48.182;-1.946;2023-02-03T11:40:11;5.93;;;2.42;;
61399;SDS011;47269;48.182;-1.946;2023-02-03T11:42:57;6.30;;;2.30;;
61399;SDS011;47269;48.182;-1.946;2023-02-03T11:47:58;6.63;;;3.25;;
61399;SDS011;47269;48.182;-1.946;2023-02-03T11:53:09;5.53;;;2.40;;
61399;SDS011;47269;48.182;-1.946;2023-02-03T12:06:32;3.83;;;1.75;;
61399;SDS011;47269;48.182;-1.946;2023-02-03T12:09:22;9.07;;;1.88;;
61399;SDS011;47269;48.182;-1.946;2023-02-03T12:17:07;1.55;;;0.65;;
61399;SDS011;47269;48.182;-1.946;2023-02-03T12:30:54;1.40;;;1.08;;
61399;SDS011;47269;48.182;-1.946;2023-02-03T12:33:34;3.30;;;1.10;;
61399;SDS011;47269;48.182;-1.946;2023-02-03T12:36:09;2.28;;;1.10;;
61399;SDS011;47269;48.182;-1.946;2023-02-03T12:41:14;5.93;;;1.10;;
61399;SDS011;47269;48.182;-1.946;2023-02-03T12:43:48;2.67;;;1.27;;
61399;SDS011;47269;48.182;-1.946;2023-02-03T12:46:23;3.50;;;1.33;;
61399;SDS011;47269;48.182;-1.946;2023-02-03T12:48:55;1.83;;;1.13;;
61399;SDS011;47269;48.182;-1.946;2023-02-03T12:54:06;3.55;;;1.33;;
61399;SDS011;47269;48.182;-1.946;2023-02-03T13:00:02;3.03;;;1.50;;
61399;SDS011;47269;48.182;-1.946;2023-02-03T13:02:44;3.55;;;1.30;;
61399;SDS011;47269;48.182;-1.946;2023-02-03T13:05:33;3.22;;;1.70;;
61399;SDS011;47269;48.182;-1.946;2023-02-03T13:08:31;3.85;;;1.73;;
61399;SDS011;47269;48.182;-1.946;2023-02-03T13:13:41;4.50;;;1.52;;
61399;SDS011;47269;48.182;-1.946;2023-02-03T13:16:32;7.10;;;2.00;;
61399;SDS011;47269;48.182;-1.946;2023-02-03T13:19:02;2.78;;;1.52;;
61399;SDS011;47269;48.182;-1.946;2023-02-03T13:21:32;2.58;;;1.67;;
61399;SDS011;47269;48.182;-1.946;2023-02-03T13:23:57;1.45;;;1.15;;
61399;SDS011;47269;48.182;-1.946;2023-02-03T13:35:03;1.35;;;0.98;;
61399;SDS011;47269;48.182;-1.946;2023-02-03T13:40:57;20.42;;;10.38;;
61399;SDS011;47269;48.182;-1.946;2023-02-03T13:43:39;18.50;;;11.82;;
61399;SDS011;47269;48.182;-1.946;2023-02-03T13:46:23;9.10;;;4.18;;
61399;SDS011;47269;48.182;-1.946;2023-02-03T13:48:52;3.90;;;1.65;;
61399;SDS011;47269;48.182;-1.946;2023-02-03T13:51:21;4.75;;;2.72;;
61399;SDS011;47269;48.182;-1.946;2023-02-03T13:53:57;1.50;;;1.20;;
61399;SDS011;47269;48.182;-1.946;2023-02-03T13:56:25;1.23;;;0.55;;
61399;SDS011;47269;48.182;-1.946;2023-02-03T13:59:39;0.95;;;0.52;;
61399;SDS011;47269;48.182;-1.946;2023-02-03T14:12:57;4.50;;;2.58;;
61399;SDS011;47269;48.182;-1.946;2023-02-03T14:18:29;2.10;;;1.50;;
61399;SDS011;47269;48.182;-1.946;2023-02-03T14:21:08;2.38;;;1.58;;
61399;SDS011;47269;48.182;-1.946;2023-02-03T14:23:44;2.00;;;1.67;;
61399;SDS011;47269;48.182;-1.946;2023-02-03T14:26:18;7.57;;;1.45;;
61399;SDS011;47269;48.182;-1.946;2023-02-03T14:28:48;2.13;;;1.23;;
61399;SDS011;47269;48.182;-1.946;2023-02-03T14:31:17;2.40;;;0.73;;
61399;SDS011;47269;48.182;-1.946;2023-02-03T14:39:45;4.50;;;1.63;;
61399;SDS011;47269;48.182;-1.946;2023-02-03T14:42:48;2.22;;;1.10;;
61399;SDS011;47269;48.182;-1.946;2023-02-03T14:50:34;1.73;;;1.00;;
61399;SDS011;47269;48.182;-1.946;2023-02-03T14:58:35;4.97;;;1.33;;
61399;SDS011;47269;48.182;-1.946;2023-02-03T15:01:07;3.22;;;1.35;;
61399;SDS011;47269;48.182;-1.946;2023-02-03T15:12:22;1.60;;;0.95;;
61399;SDS011;47269;48.182;-1.946;2023-02-03T15:14:49;2.65;;;1.50;;
61399;SDS011;47269;48.182;-1.946;2023-02-03T15:17:23;4.85;;;1.77;;
61399;SDS011;47269;48.182;-1.946;2023-02-03T15:19:51;5.88;;;2.72;;
61399;SDS011;47269;48.182;-1.946;2023-02-03T15:24:49;6.82;;;2.78;;
61399;SDS011;47269;48.182;-1.946;2023-02-03T15:27:21;2.67;;;1.23;;
61399;SDS011;47269;48.182;-1.946;2023-02-03T15:29:48;1.98;;;0.57;;
61399;SDS011;47269;48.182;-1.946;2023-02-03T15:32:15;2.10;;;0.95;;
61399;SDS011;47269;48.182;-1.946;2023-02-03T15:34:49;1.17;;;0.65;;
61399;SDS011;47269;48.182;-1.946;2023-02-03T15:37:16;0.77;;;0.70;;
61399;SDS011;47269;48.182;-1.946;2023-02-03T15:47:40;6.63;;;2.72;;
61399;SDS011;47269;48.182;-1.946;2023-02-03T15:52:56;3.22;;;1.60;;
61399;SDS011;47269;48.182;-1.946;2023-02-03T15:55:35;3.17;;;1.50;;
61399;SDS011;47269;48.182;-1.946;2023-02-03T15:58:26;4.05;;;1.55;;
61399;SDS011;47269;48.182;-1.946;2023-02-03T16:01:05;2.08;;;1.42;;
61399;SDS011;47269;48.182;-1.946;2023-02-03T16:03:38;2.42;;;1.55;;
61399;SDS011;47269;48.182;-1.946;2023-02-03T16:06:23;3.75;;;1.33;;
61399;SDS011;47269;48.182;-1.946;2023-02-03T16:08:55;1.40;;;1.05;;
61399;SDS011;47269;48.182;-1.946;2023-02-03T16:11:43;2.08;;;1.25;;
61399;SDS011;47269;48.182;-1.946;2023-02-03T16:14:10;2.60;;;1.15;;
61399;SDS011;47269;48.182;-1.946;2023-02-03T16:16:54;1.23;;;0.77;;
61399;SDS011;47269;48.182;-1.946;2023-02-03T16:19:21;1.35;;;0.90;;
61399;SDS011;47269;48.182;-1.946;2023-02-03T16:29:41;2.10;;;1.15;;
61399;SDS011;47269;48.182;-1.946;2023-02-03T16:32:25;2.65;;;1.80;;
61399;SDS011;47269;48.182;-1.946;2023-02-03T16:35:09;2.42;;;1.20;;
61399;SDS011;47269;48.182;-1.946;2023-02-03T16:41:09;2.63;;;1.25;;
61399;SDS011;47269;48.182;-1.946;2023-02-03T16:43:59;3.92;;;1.38;;
61399;SDS011;47269;48.182;-1.946;2023-02-03T16:46:43;1.98;;;1.20;;
61399;SDS011;47269;48.182;-1.946;2023-02-03T16:49:29;2.55;;;1.55;;
61399;SDS011;47269;48.182;-1.946;2023-02-03T16:52:13;2.53;;;1.30;;
61399;SDS011;47269;48.182;-1.946;2023-02-03T16:54:39;3.95;;;1.40;;
61399;SDS011;47269;48.182;-1.946;2023-02-03T16:57:04;2.80;;;1.05;;
61399;SDS011;47269;48.182;-1.946;2023-02-03T16:59:30;3.33;;;1.73;;
61399;SDS011;47269;48.182;-1.946;2023-02-03T17:01:56;4.88;;;2.20;;
61399;SDS011;47269;48.182;-1.946;2023-02-03T17:04:21;4.65;;;2.35;;
61399;SDS011;47269;48.182;-1.946;2023-02-03T17:06:47;4.40;;;2.25;;
61399;SDS011;47269;48.182;-1.946;2023-02-03T17:09:15;4.78;;;2.60;;
61399;SDS011;47269;48.182;-1.946;2023-02-03T17:11:46;7.05;;;2.90;;
61399;SDS011;47269;48.182;-1.946;2023-02-03T17:14:12;5.07;;;3.10;;
61399;SDS011;47269;48.182;-1.946;2023-02-03T17:16:37;7.70;;;3.50;;
61399;SDS011;47269;48.182;-1.946;2023-02-03T17:19:03;7.55;;;2.88;;
61399;SDS011;47269;48.182;-1.946;2023-02-03T17:21:29;6.00;;;2.53;;
61399;SDS011;47269;48.182;-1.946;2023-02-03T17:23:56;2.75;;;1.70;;
61399;SDS011;47269;48.182;-1.946;2023-02-03T17:26:22;2.95;;;1.98;;
61399;SDS011;47269;48.182;-1.946;2023-02-03T17:28:48;3.38;;;2.20;;
61399;SDS011;47269;48.182;-1.946;2023-02-03T17:31:15;4.32;;;2.20;;
61399;SDS011;47269;48.182;-1.946;2023-02-03T17:33:43;8.38;;;3.00;;
61399;SDS011;47269;48.182;-1.946;2023-02-03T17:36:10;6.93;;;3.83;;
61399;SDS011;47269;48.182;-1.946;2023-02-03T17:38:41;12.13;;;5.15;;
61399;SDS011;47269;48.182;-1.946;2023-02-03T17:41:15;7.80;;;3.50;;
61399;SDS011;47269;48.182;-1.946;2023-02-03T17:43:42;8.93;;;3.95;;
61399;SDS011;47269;48.182;-1.946;2023-02-03T17:46:10;7.75;;;3.53;;
61399;SDS011;47269;48.182;-1.946;2023-02-03T17:48:37;4.88;;;2.80;;
61399;SDS011;47269;48.182;-1.946;2023-02-03T17:51:10;7.18;;;3.58;;
61399;SDS011;47269;48.182;-1.946;2023-02-03T17:53:38;6.93;;;2.63;;
61399;SDS011;47269;48.182;-1.946;2023-02-03T17:56:05;5.50;;;2.85;;
61399;SDS011;47269;48.182;-1.946;2023-02-03T17:58:35;6.95;;;3.28;;
61399;SDS011;47269;48.182;-1.946;2023-02-03T18:01:15;7.05;;;3.58;;
61399;SDS011;47269;48.182;-1.946;2023-02-03T18:03:43;6.93;;;4.00;;
61399;SDS011;47269;48.182;-1.946;2023-02-03T18:06:10;7.85;;;3.40;;
61399;SDS011;47269;48.182;-1.946;2023-02-03T18:08:37;5.32;;;3.03;;
61399;SDS011;47269;48.182;-1.946;2023-02-03T18:11:03;6.35;;;4.25;;
61399;SDS011;47269;48.182;-1.946;2023-02-03T18:13:29;7.03;;;3.55;;
61399;SDS011;47269;48.182;-1.946;2023-02-03T18:16:00;6.72;;;3.22;;
61399;SDS011;47269;48.182;-1.946;2023-02-03T18:18:27;5.85;;;2.60;;
61399;SDS011;47269;48.182;-1.946;2023-02-03T18:20:53;7.40;;;3.78;;
61399;SDS011;47269;48.182;-1.946;2023-02-03T18:23:19;9.50;;;4.72;;
61399;SDS011;47269;48.182;-1.946;2023-02-03T18:25:51;6.30;;;3.50;;
61399;SDS011;47269;48.182;-1.946;2023-02-03T18:28:17;7.65;;;3.80;;
61399;SDS011;47269;48.182;-1.946;2023-02-03T18:30:43;5.97;;;3.58;;
61399;SDS011;47269;48.182;-1.946;2023-02-03T18:33:09;8.95;;;4.22;;
61399;SDS011;47269;48.182;-1.946;2023-02-03T18:35:35;12.65;;;4.70;;
61399;SDS011;47269;48.182;-1.946;2023-02-03T18:38:01;9.80;;;4.47;;
61399;SDS011;47269;48.182;-1.946;2023-02-03T18:40:26;10.20;;;4.78;;
61399;SDS011;47269;48.182;-1.946;2023-02-03T18:42:52;9.90;;;4.82;;
61399;SDS011;47269;48.182;-1.946;2023-02-03T18:45:20;7.53;;;4.40;;
61399;SDS011;47269;48.182;-1.946;2023-02-03T18:47:46;10.88;;;4.50;;
61399;SDS011;47269;48.182;-1.946;2023-02-03T18:50:12;11.48;;;4.38;;
61399;SDS011;47269;48.182;-1.946;2023-02-03T18:52:38;9.85;;;4.53;;
61399;SDS011;47269;48.182;-1.946;2023-02-03T18:55:03;8.23;;;4.20;;
61399;SDS011;47269;48.182;-1.946;2023-02-03T18:57:29;7.97;;;3.50;;
61399;SDS011;47269;48.182;-1.946;2023-02-03T18:59:55;4.72;;;2.88;;
61399;SDS011;47269;48.182;-1.946;2023-02-03T19:02:21;12.27;;;4.15;;
61399;SDS011;47269;48.182;-1.946;2023-02-03T19:04:49;12.13;;;4.07;;
61399;SDS011;47269;48.182;-1.946;2023-02-03T19:07:15;7.53;;;3.65;;
61399;SDS011;47269;48.182;-1.946;2023-02-03T19:09:41;12.25;;;3.47;;
61399;SDS011;47269;48.182;-1.946;2023-02-03T19:12:08;6.60;;;3.33;;
61399;SDS011;47269;48.182;-1.946;2023-02-03T19:14:34;9.38;;;4.63;;
61399;SDS011;47269;48.182;-1.946;2023-02-03T19:17:00;16.63;;;3.33;;
61399;SDS011;47269;48.182;-1.946;2023-02-03T19:19:27;5.65;;;3.25;;
61399;SDS011;47269;48.182;-1.946;2023-02-03T19:21:52;6.25;;;2.85;;
61399;SDS011;47269;48.182;-1.946;2023-02-03T19:24:18;10.07;;;3.72;;
61399;SDS011;47269;48.182;-1.946;2023-02-03T19:26:44;8.82;;;3.25;;
61399;SDS011;47269;48.182;-1.946;2023-02-03T19:29:10;6.60;;;3.38;;
61399;SDS011;47269;48.182;-1.946;2023-02-03T19:31:36;5.05;;;2.75;;
61399;SDS011;47269;48.182;-1.946;2023-02-03T19:34:01;4.10;;;2.97;;
61399;SDS011;47269;48.182;-1.946;2023-02-03T19:36:27;5.57;;;2.97;;
61399;SDS011;47269;48.182;-1.946;2023-02-03T19:38:54;7.18;;;2.75;;
61399;SDS011;47269;48.182;-1.946;2023-02-03T19:41:21;5.68;;;3.25;;
61399;SDS011;47269;48.182;-1.946;2023-02-03T19:43:47;6.95;;;3.15;;
61399;SDS011;47269;48.182;-1.946;2023-02-03T19:46:16;5.88;;;2.92;;
61399;SDS011;47269;48.182;-1.946;2023-02-03T19:48:43;5.97;;;2.95;;
61399;SDS011;47269;48.182;-1.946;2023-02-03T19:51:09;4.88;;;2.65;;
61399;SDS011;47269;48.182;-1.946;2023-02-03T19:53:36;7.50;;;3.03;;
61399;SDS011;47269;48.182;-1.946;2023-02-03T19:56:01;6.97;;;3.58;;
61399;SDS011;47269;48.182;-1.946;2023-02-03T19:58:28;25.90;;;12.15;;
61399;SDS011;47269;48.182;-1.946;2023-02-03T20:00:54;28.90;;;13.23;;
61399;SDS011;47269;48.182;-1.946;2023-02-03T20:03:21;35.35;;;12.70;;
61399;SDS011;47269;48.182;-1.946;2023-02-03T20:05:47;22.88;;;12.00;;
61399;SDS011;47269;48.182;-1.946;2023-02-03T20:08:13;19.08;;;8.98;;
61399;SDS011;47269;48.182;-1.946;2023-02-03T20:10:41;14.57;;;6.65;;
61399;SDS011;47269;48.182;-1.946;2023-02-03T20:13:10;10.65;;;5.50;;
61399;SDS011;47269;48.182;-1.946;2023-02-03T20:15:36;9.90;;;4.18;;
61399;SDS011;47269;48.182;-1.946;2023-02-03T20:18:02;7.22;;;4.18;;
61399;SDS011;47269;48.182;-1.946;2023-02-03T20:20:30;8.20;;;3.90;;
61399;SDS011;47269;48.182;-1.946;2023-02-03T20:22:56;5.38;;;2.92;;
61399;SDS011;47269;48.182;-1.946;2023-02-03T20:25:22;8.10;;;4.53;;
61399;SDS011;47269;48.182;-1.946;2023-02-03T20:27:47;7.28;;;3.60;;
61399;SDS011;47269;48.182;-1.946;2023-02-03T20:30:13;7.22;;;3.65;;
61399;SDS011;47269;48.182;-1.946;2023-02-03T20:32:39;6.40;;;3.25;;
61399;SDS011;47269;48.182;-1.946;2023-02-03T20:35:04;7.80;;;3.30;;
61399;SDS011;47269;48.182;-1.946;2023-02-03T20:37:30;7.57;;;3.83;;
61399;SDS011;47269;48.182;-1.946;2023-02-03T20:39:57;10.10;;;4.25;;
61399;SDS011;47269;48.182;-1.946;2023-02-03T20:42:22;8.60;;;4.55;;
61399;SDS011;47269;48.182;-1.946;2023-02-03T20:44:48;12.95;;;4.63;;
61399;SDS011;47269;48.182;-1.946;2023-02-03T20:47:14;12.90;;;4.07;;
61399;SDS011;47269;48.182;-1.946;2023-02-03T20:49:42;7.88;;;3.55;;
61399;SDS011;47269;48.182;-1.946;2023-02-03T20:52:11;8.75;;;4.05;;
61399;SDS011;47269;48.182;-1.946;2023-02-03T20:54:39;6.60;;;3.70;;
61399;SDS011;47269;48.182;-1.946;2023-02-03T20:57:08;5.80;;;3.10;;
61399;SDS011;47269;48.182;-1.946;2023-02-03T20:59:37;7.63;;;4.32;;
61399;SDS011;47269;48.182;-1.946;2023-02-03T21:02:02;9.52;;;3.80;;
61399;SDS011;47269;48.182;-1.946;2023-02-03T21:04:41;5.25;;;3.30;;
61399;SDS011;47269;48.182;-1.946;2023-02-03T21:07:22;5.35;;;2.75;;
61399;SDS011;47269;48.182;-1.946;2023-02-03T21:09:52;4.13;;;2.55;;
61399;SDS011;47269;48.182;-1.946;2023-02-03T21:12:18;5.03;;;2.60;;
61399;SDS011;47269;48.182;-1.946;2023-02-03T21:14:44;9.48;;;5.68;;
61399;SDS011;47269;48.182;-1.946;2023-02-03T21:19:48;4.93;;;3.33;;
61399;SDS011;47269;48.182;-1.946;2023-02-03T21:22:15;5.68;;;3.38;;
61399;SDS011;47269;48.182;-1.946;2023-02-03T21:24:50;4.50;;;2.95;;
61399;SDS011;47269;48.182;-1.946;2023-02-03T21:29:57;6.72;;;2.90;;
61399;SDS011;47269;48.182;-1.946;2023-02-03T21:32:34;6.10;;;3.35;;
61399;SDS011;47269;48.182;-1.946;2023-02-03T21:35:16;6.80;;;3.10;;
61399;SDS011;47269;48.182;-1.946;2023-02-03T21:37:48;6.45;;;3.95;;
61399;SDS011;47269;48.182;-1.946;2023-02-03T21:40:20;7.00;;;3.25;;
61399;SDS011;47269;48.182;-1.946;2023-02-03T21:42:50;6.03;;;2.75;;
61399;SDS011;47269;48.182;-1.946;2023-02-03T21:47:45;8.93;;;3.10;;
61399;SDS011;47269;48.182;-1.946;2023-02-03T21:58:43;2.58;;;1.40;;
61399;SDS011;47269;48.182;-1.946;2023-02-03T22:01:11;4.63;;;1.98;;
61399;SDS011;47269;48.182;-1.946;2023-02-03T22:03:40;6.03;;;2.22;;
61399;SDS011;47269;48.182;-1.946;2023-02-03T22:08:40;3.65;;;2.00;;
61399;SDS011;47269;48.182;-1.946;2023-02-03T22:11:06;5.60;;;2.25;;
61399;SDS011;47269;48.182;-1.946;2023-02-03T22:13:32;3.88;;;1.67;;
61399;SDS011;47269;48.182;-1.946;2023-02-03T22:15:58;3.38;;;2.03;;
61399;SDS011;47269;48.182;-1.946;2023-02-03T22:18:24;4.18;;;2.00;;
61399;SDS011;47269;48.182;-1.946;2023-02-03T22:20:50;5.13;;;2.33;;
61399;SDS011;47269;48.182;-1.946;2023-02-03T22:23:16;6.50;;;2.80;;
61399;SDS011;47269;48.182;-1.946;2023-02-03T22:25:42;3.50;;;2.03;;
61399;SDS011;47269;48.182;-1.946;2023-02-03T22:28:08;3.33;;;2.40;;
61399;SDS011;47269;48.182;-1.946;2023-02-03T22:30:36;4.50;;;1.92;;
61399;SDS011;47269;48.182;-1.946;2023-02-03T22:33:01;1.40;;;1.00;;
61399;SDS011;47269;48.182;-1.946;2023-02-03T22:35:27;2.08;;;1.67;;
61399;SDS011;47269;48.182;-1.946;2023-02-03T22:37:54;4.90;;;2.05;;
61399;SDS011;47269;48.182;-1.946;2023-02-03T22:40:20;4.85;;;2.08;;
61399;SDS011;47269;48.182;-1.946;2023-02-03T22:42:47;2.17;;;1.75;;
61399;SDS011;47269;48.182;-1.946;2023-02-03T22:45:12;4.72;;;1.90;;
61399;SDS011;47269;48.182;-1.946;2023-02-03T22:47:39;3.85;;;2.03;;
61399;SDS011;47269;48.182;-1.946;2023-02-03T22:50:05;5.05;;;2.00;;
61399;SDS011;47269;48.182;-1.946;2023-02-03T22:52:32;4.22;;;2.45;;
61399;SDS011;47269;48.182;-1.946;2023-02-03T22:54:58;3.90;;;2.22;;
61399;SDS011;47269;48.182;-1.946;2023-02-03T22:57:23;6.60;;;2.58;;
61399;SDS011;47269;48.182;-1.946;2023-02-03T22:59:49;4.68;;;2.35;;
